createdAt,value
2023-02-17T00:01:14.483Z,78.90
2023-02-17T00:03:48.393Z,79.03
2023-02-17T00:06:22.224Z,79.02
2023-02-17T00:08:54.884Z,79.07
2023-02-17T00:11:28.502Z,78.90
2023-02-17T00:14:01.051Z,78.75
2023-02-17T00:16:33.204Z,78.73
2023-02-17T00:19:25.040Z,78.94
2023-02-17T00:21:59.660Z,78.89
2023-02-17T00:24:33.788Z,79.02
2023-02-17T00:27:06.119Z,79.15
2023-02-17T00:29:38.627Z,79.47
2023-02-17T00:32:11.565Z,79.27
2023-02-17T00:34:44.089Z,79.50
2023-02-17T00:37:16.337Z,79.43
2023-02-17T00:39:48.539Z,79.43
2023-02-17T00:42:24.255Z,79.39
2023-02-17T00:45:11.432Z,79.23
2023-02-17T00:47:43.543Z,78.94
2023-02-17T00:50:15.828Z,79.22
2023-02-17T00:52:48.161Z,79.08
2023-02-17T00:55:20.577Z,79.12
2023-02-17T00:57:53.799Z,79.22
2023-02-17T01:00:26.456Z,79.51
2023-02-17T01:02:58.665Z,79.62
2023-02-17T01:05:31.116Z,79.54
2023-02-17T01:08:03.399Z,79.72
2023-02-17T01:10:37.310Z,79.83
2023-02-17T01:13:10.536Z,79.84
2023-02-17T01:15:44.031Z,79.37
2023-02-17T01:18:20.089Z,79.59
2023-02-17T01:20:52.721Z,79.51
2023-02-17T01:23:25.303Z,79.52
2023-02-17T01:25:59.151Z,79.37
2023-02-17T01:28:32.523Z,79.50
2023-02-17T01:31:09.932Z,79.72
2023-02-17T01:33:43.437Z,79.82
2023-02-17T01:36:20.239Z,79.85
2023-02-17T01:38:52.914Z,79.97
2023-02-17T01:41:27.835Z,79.94
2023-02-17T01:44:09.105Z,79.80
2023-02-17T01:46:44.889Z,79.56
2023-02-17T01:49:25.138Z,79.52
2023-02-17T01:52:03.282Z,79.77
2023-02-17T01:54:42.533Z,79.89
2023-02-17T01:57:18.005Z,79.96
2023-02-17T01:59:51.859Z,79.95
2023-02-17T02:02:24.838Z,80.15
2023-02-17T02:04:57.141Z,80.08
2023-02-17T02:07:33.051Z,80.27
2023-02-17T02:10:06.221Z,80.24
2023-02-17T02:12:42.563Z,80.17
2023-02-17T02:15:17.981Z,80.28
2023-02-17T02:18:04.618Z,79.90
2023-02-17T02:21:04.432Z,79.95
2023-02-17T02:24:00.175Z,79.99
2023-02-17T02:26:44.659Z,79.98
2023-02-17T02:29:57.343Z,80.14
2023-02-17T02:32:46.006Z,80.07
2023-02-17T02:35:22.097Z,80.24
2023-02-17T02:38:00.481Z,80.41
2023-02-17T02:40:37.924Z,80.29
2023-02-17T02:43:10.717Z,80.60
2023-02-17T02:45:42.978Z,80.73
2023-02-17T02:48:15.229Z,80.49
2023-02-17T02:51:02.851Z,80.58
2023-02-17T02:54:01.037Z,80.30
2023-02-17T02:56:48.149Z,80.04
2023-02-17T02:59:34.891Z,80.25
2023-02-17T03:02:14.401Z,80.43
2023-02-17T03:04:52.406Z,80.24
2023-02-17T03:07:29.644Z,80.47
2023-02-17T03:10:02.921Z,80.73
2023-02-17T03:12:37.440Z,80.64
2023-02-17T03:15:16.874Z,80.74
2023-02-17T03:17:49.257Z,80.91
2023-02-17T03:20:22.059Z,80.80
2023-02-17T03:22:54.854Z,80.46
2023-02-17T03:25:27.240Z,80.46
2023-02-17T03:27:59.685Z,80.35
2023-02-17T03:30:32.230Z,80.31
2023-02-17T03:33:04.617Z,80.50
2023-02-17T03:35:36.829Z,80.62
2023-02-17T03:38:08.973Z,80.84
2023-02-17T03:40:41.295Z,80.90
2023-02-17T03:43:13.514Z,80.81
2023-02-17T03:45:45.852Z,80.81
2023-02-17T03:48:18.081Z,80.85
2023-02-17T03:50:50.413Z,81.02
2023-02-17T03:53:22.678Z,80.46
2023-02-17T03:55:55.000Z,80.52
2023-02-17T03:58:27.215Z,80.59
2023-02-17T04:00:59.538Z,80.73
2023-02-17T04:03:32.086Z,80.89
2023-02-17T04:06:05.034Z,80.79
2023-02-17T04:08:37.810Z,80.79
2023-02-17T04:11:11.609Z,80.86
2023-02-17T04:13:43.753Z,80.93
2023-02-17T04:16:16.081Z,81.24
2023-02-17T04:18:48.293Z,81.21
2023-02-17T04:21:20.672Z,81.00
2023-02-17T04:23:54.628Z,80.68
2023-02-17T04:26:26.948Z,80.67
2023-02-17T04:28:59.450Z,80.76
2023-02-17T04:31:31.819Z,80.94
2023-02-17T04:34:04.170Z,80.91
2023-02-17T04:36:36.960Z,80.98
2023-02-17T04:39:09.171Z,81.06
2023-02-17T04:41:41.346Z,81.37
2023-02-17T04:44:13.610Z,81.38
2023-02-17T04:46:45.828Z,81.50
2023-02-17T04:49:18.021Z,81.54
2023-02-17T04:51:50.346Z,81.32
2023-02-17T04:54:23.488Z,80.99
2023-02-17T04:56:55.683Z,81.03
2023-02-17T04:59:28.033Z,81.09
2023-02-17T05:02:00.220Z,81.29
2023-02-17T05:04:32.536Z,81.35
2023-02-17T05:07:04.839Z,81.26
2023-02-17T05:09:37.263Z,81.68
2023-02-17T05:12:09.869Z,81.64
2023-02-17T05:14:42.144Z,81.83
2023-02-17T05:17:14.282Z,81.66
2023-02-17T05:19:46.507Z,81.85
2023-02-17T05:22:18.901Z,81.48
2023-02-17T05:24:51.144Z,81.55
2023-02-17T05:27:23.745Z,81.67
2023-02-17T05:29:55.995Z,81.80
2023-02-17T05:32:28.341Z,81.97
2023-02-17T05:35:00.509Z,81.81
2023-02-17T05:37:32.676Z,82.22
2023-02-17T05:40:05.485Z,82.19
2023-02-17T05:42:37.683Z,82.35
2023-02-17T05:45:12.460Z,82.57
2023-02-17T05:47:44.581Z,82.42
2023-02-17T05:50:17.064Z,82.18
2023-02-17T05:52:49.323Z,82.05
2023-02-17T05:55:22.311Z,82.24
2023-02-17T05:57:54.496Z,82.15
2023-02-17T06:00:27.411Z,82.48
2023-02-17T06:02:59.895Z,82.18
2023-02-17T06:05:32.368Z,82.19
2023-02-17T06:08:04.716Z,82.57
2023-02-17T06:10:36.897Z,82.51
2023-02-17T06:13:09.323Z,82.68
2023-02-17T06:15:41.888Z,82.69
2023-02-17T06:18:14.106Z,82.71
2023-02-17T06:20:46.405Z,82.34
2023-02-17T06:23:18.630Z,82.48
2023-02-17T06:25:50.842Z,82.20
2023-02-17T06:28:23.063Z,82.41
2023-02-17T06:30:55.365Z,82.44
2023-02-17T06:33:27.884Z,82.62
2023-02-17T06:36:00.106Z,82.73
2023-02-17T06:38:32.345Z,82.93
2023-02-17T06:41:04.669Z,82.76
2023-02-17T06:43:36.894Z,82.99
2023-02-17T06:46:09.688Z,83.02
2023-02-17T06:48:42.118Z,83.04
2023-02-17T06:51:14.413Z,82.90
2023-02-17T06:53:47.079Z,82.76
2023-02-17T06:56:21.097Z,82.66
2023-02-17T06:58:54.019Z,82.82
2023-02-17T07:01:27.569Z,82.79
2023-02-17T07:04:00.135Z,82.52
2023-02-17T07:06:32.392Z,82.86
2023-02-17T07:09:05.286Z,83.09
2023-02-17T07:11:37.534Z,83.06
2023-02-17T07:14:09.863Z,83.40
2023-02-17T07:16:42.062Z,83.37
2023-02-17T07:19:14.464Z,83.32
2023-02-17T07:21:47.246Z,83.28
2023-02-17T07:24:19.544Z,83.25
2023-02-17T07:26:53.860Z,82.86
2023-02-17T07:29:26.088Z,82.84
2023-02-17T07:31:58.303Z,82.97
2023-02-17T07:34:30.585Z,83.09
2023-02-17T07:37:02.841Z,83.33
2023-02-17T07:39:35.289Z,83.16
2023-02-17T07:42:07.567Z,83.45
2023-02-17T07:44:39.854Z,83.81
2023-02-17T07:47:11.957Z,83.87
2023-02-17T07:49:44.271Z,83.53
2023-02-17T07:52:19.674Z,83.47
2023-02-17T07:54:51.824Z,83.41
2023-02-17T07:57:23.996Z,83.39
2023-02-17T07:59:56.295Z,83.65
2023-02-17T08:02:28.512Z,83.47
2023-02-17T08:05:01.736Z,83.94
2023-02-17T08:07:34.076Z,83.93
2023-02-17T08:10:24.985Z,84.24
2023-02-17T08:13:15.303Z,84.15
2023-02-17T08:15:47.456Z,84.25
2023-02-17T08:18:19.667Z,84.38
2023-02-17T08:20:52.499Z,83.93
2023-02-17T08:23:24.779Z,84.28
2023-02-17T08:25:59.872Z,84.09
2023-02-17T08:28:32.808Z,84.58
2023-02-17T08:31:05.286Z,84.47
2023-02-17T08:33:37.541Z,84.45
2023-02-17T08:36:11.632Z,84.48
2023-02-17T08:38:48.635Z,84.76
2023-02-17T08:41:24.496Z,84.90
2023-02-17T08:43:57.020Z,85.10
2023-02-17T08:46:30.234Z,85.16
2023-02-17T08:49:02.762Z,84.81
2023-02-17T08:51:35.108Z,85.25
2023-02-17T08:54:10.428Z,84.90
2023-02-17T08:56:43.567Z,85.05
2023-02-17T08:59:18.035Z,85.29
2023-02-17T09:01:50.950Z,85.37
2023-02-17T09:04:23.327Z,85.50
2023-02-17T09:06:58.551Z,85.60
2023-02-17T09:09:32.677Z,85.59
2023-02-17T09:12:05.412Z,85.75
2023-02-17T09:14:37.831Z,85.89
2023-02-17T09:17:11.282Z,85.75
2023-02-17T09:19:43.806Z,85.38
2023-02-17T09:22:30.825Z,85.66
2023-02-17T09:25:04.127Z,85.61
2023-02-17T09:27:36.654Z,85.62
2023-02-17T09:30:11.412Z,85.90
2023-02-17T09:32:45.209Z,85.90
2023-02-17T09:35:19.307Z,85.81
2023-02-17T09:37:52.016Z,86.10
2023-02-17T09:40:29.469Z,86.71
2023-02-17T09:43:02.699Z,86.48
2023-02-17T09:45:37.530Z,86.54
2023-02-17T09:48:13.266Z,86.58
2023-02-17T09:50:51.996Z,86.13
2023-02-17T09:53:32.899Z,86.05
2023-02-17T09:56:10.784Z,86.08
2023-02-17T09:58:47.966Z,86.32
2023-02-17T10:01:22.786Z,86.27
2023-02-17T10:03:58.845Z,86.55
2023-02-17T10:06:35.181Z,86.77
2023-02-17T10:09:13.214Z,86.66
2023-02-17T10:11:49.836Z,87.46
2023-02-17T10:14:29.002Z,87.39
2023-02-17T10:17:08.265Z,87.05
2023-02-17T10:19:51.965Z,86.52
2023-02-17T10:22:25.539Z,86.79
2023-02-17T10:24:58.348Z,87.39
2023-02-17T10:27:43.305Z,87.52
2023-02-17T10:30:34.085Z,87.16
2023-02-17T10:33:22.290Z,87.58
2023-02-17T10:35:59.309Z,87.95
2023-02-17T10:38:42.457Z,87.75
2023-02-17T10:41:18.892Z,88.04
2023-02-17T10:43:51.879Z,88.09
2023-02-17T10:46:29.876Z,88.42
2023-02-17T10:49:02.874Z,87.68
2023-02-17T10:51:35.299Z,87.86
2023-02-17T10:54:17.885Z,87.71
2023-02-17T10:56:53.483Z,88.08
2023-02-17T10:59:29.875Z,88.40
2023-02-17T11:02:15.595Z,88.78
2023-02-17T11:04:49.427Z,88.65
2023-02-17T11:07:28.244Z,88.76
2023-02-17T11:10:04.637Z,89.17
2023-02-17T11:12:42.666Z,89.82
2023-02-17T11:15:19.827Z,89.84
2023-02-17T11:17:52.588Z,89.62
2023-02-17T11:20:37.157Z,88.95
2023-02-17T11:23:24.704Z,89.33
2023-02-17T11:26:19.421Z,89.31
2023-02-17T11:28:51.999Z,89.60
2023-02-17T11:31:29.272Z,89.36
2023-02-17T11:34:11.824Z,88.99
2023-02-17T11:36:47.261Z,89.59
2023-02-17T11:39:24.149Z,89.35
2023-02-17T11:41:57.781Z,89.71
2023-02-17T11:44:31.051Z,89.79
2023-02-17T11:47:11.281Z,90.36
2023-02-17T11:50:11.919Z,90.49
2023-02-17T11:53:01.242Z,90.87
2023-02-17T11:55:44.206Z,90.16
2023-02-17T11:58:30.222Z,90.18
2023-02-17T12:01:15.421Z,90.63
2023-02-17T12:04:09.610Z,91.18
2023-02-17T12:06:53.164Z,91.52
2023-02-17T12:09:30.917Z,91.08
2023-02-17T12:12:13.321Z,91.05
2023-02-17T12:15:08.636Z,91.35
2023-02-17T12:17:52.909Z,91.08
2023-02-17T12:20:38.516Z,91.20
2023-02-17T12:23:25.891Z,91.67
2023-02-17T12:26:04.767Z,91.89
2023-02-17T12:29:00.289Z,91.92
2023-02-17T12:31:50.571Z,92.23
2023-02-17T12:34:27.047Z,92.45
2023-02-17T12:37:00.544Z,91.65
2023-02-17T12:39:39.781Z,91.71
2023-02-17T12:42:17.868Z,91.47
2023-02-17T12:44:55.214Z,91.62
2023-02-17T12:47:32.443Z,91.72
2023-02-17T12:50:16.614Z,92.28
2023-02-17T12:52:53.568Z,92.66
2023-02-17T12:55:31.780Z,92.71
2023-02-17T12:58:08.026Z,92.78
2023-02-17T13:00:44.929Z,93.23
2023-02-17T13:03:17.404Z,92.43
2023-02-17T13:06:00.017Z,92.83
2023-02-17T13:08:38.607Z,92.85
2023-02-17T13:11:15.408Z,93.28
2023-02-17T13:13:47.654Z,92.97
2023-02-17T13:16:20.215Z,94.43
2023-02-17T13:18:53.706Z,93.83
2023-02-17T13:21:34.812Z,93.70
2023-02-17T13:24:14.058Z,93.73
2023-02-17T13:26:46.752Z,93.72
2023-02-17T13:29:36.747Z,94.11
2023-02-17T13:32:13.468Z,93.68
2023-02-17T13:34:47.062Z,93.68
2023-02-17T13:37:28.279Z,94.85
2023-02-17T13:40:01.536Z,93.92
2023-02-17T13:42:39.928Z,94.31
2023-02-17T13:45:22.309Z,93.84
2023-02-17T13:47:56.456Z,93.87
2023-02-17T13:50:43.838Z,94.63
2023-02-17T13:53:29.470Z,94.55
2023-02-17T13:56:03.946Z,94.46
2023-02-17T13:58:37.783Z,94.58
2023-02-17T14:01:16.731Z,93.89
2023-02-17T14:03:51.878Z,93.89
2023-02-17T14:06:29.496Z,94.03
2023-02-17T14:09:02.047Z,93.88
2023-02-17T14:11:34.500Z,94.90
2023-02-17T14:14:09.017Z,94.67
2023-02-17T14:16:44.210Z,94.32
2023-02-17T14:19:18.223Z,95.04
2023-02-17T14:22:01.987Z,95.12
2023-02-17T14:24:36.101Z,94.96
2023-02-17T14:27:09.964Z,95.49
2023-02-17T14:29:44.636Z,95.02
2023-02-17T14:32:35.037Z,94.75
2023-02-17T14:35:24.603Z,94.55
2023-02-17T14:37:57.231Z,94.37
2023-02-17T14:40:29.553Z,94.58
2023-02-17T14:43:01.762Z,94.61
2023-02-17T14:45:33.996Z,94.89
2023-02-17T14:48:06.935Z,94.89
2023-02-17T14:50:42.611Z,95.38
2023-02-17T14:53:20.335Z,95.33
2023-02-17T14:55:57.502Z,95.59
2023-02-17T14:58:31.383Z,96.60
2023-02-17T15:01:03.931Z,96.02
2023-02-17T15:03:36.072Z,95.85
2023-02-17T15:06:12.921Z,95.99
2023-02-17T15:08:49.347Z,95.72
2023-02-17T15:11:29.043Z,96.12
2023-02-17T15:14:02.978Z,96.27
2023-02-17T15:16:35.629Z,95.72
2023-02-17T15:19:07.823Z,95.80
2023-02-17T15:21:44.229Z,96.68
2023-02-17T15:24:19.143Z,96.46
2023-02-17T15:26:49.906Z,96.41
2023-02-17T15:29:24.636Z,96.77
2023-02-17T15:31:58.926Z,97.08
2023-02-17T15:34:33.978Z,96.80
2023-02-17T15:37:06.189Z,97.93
2023-02-17T15:39:38.349Z,97.58
2023-02-17T15:42:15.316Z,97.89
2023-02-17T15:44:50.017Z,98.44
2023-02-17T15:47:22.839Z,97.69
2023-02-17T15:49:55.071Z,98.92
2023-02-17T15:52:27.333Z,97.44
2023-02-17T15:55:00.462Z,98.02
2023-02-17T15:57:32.737Z,97.54
2023-02-17T16:00:06.278Z,97.56
2023-02-17T16:02:38.922Z,98.46
2023-02-17T16:05:13.216Z,98.17
2023-02-17T16:07:45.826Z,98.31
2023-02-17T16:10:21.313Z,98.25
2023-02-17T16:12:56.578Z,98.00
2023-02-17T16:15:29.695Z,98.11
2023-02-17T16:18:01.895Z,98.54
2023-02-17T16:20:35.509Z,98.80
2023-02-17T16:23:07.641Z,98.48
2023-02-17T16:25:39.886Z,98.46
2023-02-17T16:28:15.690Z,98.38
2023-02-17T16:30:49.591Z,98.91
2023-02-17T16:33:21.945Z,98.47
2023-02-17T16:35:54.237Z,98.68
2023-02-17T16:38:26.881Z,99.01
2023-02-17T16:40:59.062Z,98.95
2023-02-17T16:43:31.331Z,99.49
2023-02-17T16:46:06.355Z,99.28
2023-02-17T16:48:43.404Z,99.14
2023-02-17T16:51:15.646Z,99.54
2023-02-17T16:53:47.823Z,99.22
2023-02-17T16:56:24.287Z,99.75
2023-02-17T16:58:56.474Z,99.56
2023-02-17T17:01:28.744Z,99.52
2023-02-17T17:04:00.951Z,99.57
2023-02-17T17:06:33.182Z,99.50
2023-02-17T17:09:06.399Z,99.71
2023-02-17T17:11:38.641Z,99.51
2023-02-17T17:14:10.842Z,99.77
2023-02-17T17:16:48.216Z,99.84
2023-02-17T17:19:20.603Z,99.79
2023-02-17T17:21:53.009Z,99.78
2023-02-17T17:24:25.485Z,99.61
2023-02-17T17:26:57.824Z,99.83
2023-02-17T17:29:30.280Z,100.00
2023-02-17T17:32:02.527Z,100.00
2023-02-17T17:34:34.762Z,99.89
2023-02-17T17:37:07.367Z,100.00
2023-02-17T17:39:40.176Z,99.99
2023-02-17T17:42:13.779Z,100.00
2023-02-17T17:44:45.984Z,100.00
2023-02-17T17:47:29.342Z,100.00
2023-02-17T17:50:02.702Z,100.00
2023-02-17T17:52:35.076Z,100.00
2023-02-17T17:55:09.778Z,100.00
2023-02-17T17:57:41.051Z,100.00
2023-02-17T18:00:19.316Z,100.00
2023-02-17T18:02:51.529Z,100.00
2023-02-17T18:05:23.904Z,100.00
2023-02-17T18:07:56.559Z,100.00
2023-02-17T18:10:28.929Z,100.00
2023-02-17T18:13:01.636Z,100.00
2023-02-17T18:15:34.018Z,100.00
2023-02-17T18:18:06.834Z,100.00
2023-02-17T18:20:39.005Z,100.00
2023-02-17T18:23:11.206Z,100.00
2023-02-17T18:25:43.734Z,100.00
2023-02-17T18:28:15.979Z,100.00
2023-02-17T18:30:48.388Z,100.00
2023-02-17T18:33:20.674Z,100.00
2023-02-17T18:35:52.861Z,100.00
2023-02-17T18:38:25.312Z,100.00
2023-02-17T18:40:57.540Z,100.00
2023-02-17T18:43:29.994Z,100.00
2023-02-17T18:46:02.442Z,100.00
2023-02-17T18:48:34.754Z,100.00
2023-02-17T18:51:10.361Z,100.00
2023-02-17T18:53:43.490Z,100.00
2023-02-17T18:56:20.071Z,100.00
2023-02-17T18:58:55.325Z,100.00
2023-02-17T19:01:30.167Z,100.00
2023-02-17T19:04:04.962Z,100.00
2023-02-17T19:06:37.308Z,100.00
2023-02-17T19:09:09.578Z,100.00
2023-02-17T19:11:41.874Z,100.00
2023-02-17T19:14:14.124Z,100.00
2023-02-17T19:16:46.398Z,100.00
2023-02-17T19:19:18.781Z,100.00
2023-02-17T19:21:50.930Z,100.00
2023-02-17T19:24:23.177Z,100.00
2023-02-17T19:26:55.675Z,100.00
2023-02-17T19:29:27.971Z,100.00
2023-02-17T19:32:01.376Z,100.00
2023-02-17T19:34:33.792Z,100.00
2023-02-17T19:37:06.397Z,100.00
2023-02-17T19:39:38.705Z,100.00
2023-02-17T19:42:10.919Z,100.00
2023-02-17T19:44:43.163Z,100.00
2023-02-17T19:47:15.500Z,100.00
2023-02-17T19:49:47.953Z,100.00
2023-02-17T19:52:21.147Z,100.00
2023-02-17T19:54:53.353Z,100.00
2023-02-17T19:57:25.514Z,100.00
2023-02-17T19:59:57.838Z,100.00
2023-02-17T20:02:30.194Z,100.00
2023-02-17T20:05:02.614Z,100.00
2023-02-17T20:07:34.789Z,100.00
2023-02-17T20:10:10.878Z,100.00
2023-02-17T20:12:43.086Z,100.00
2023-02-17T20:15:15.298Z,100.00
2023-02-17T20:17:47.555Z,100.00
2023-02-17T20:20:19.970Z,100.00
2023-02-17T20:22:52.677Z,100.00
2023-02-17T20:25:24.847Z,100.00
2023-02-17T20:27:56.968Z,100.00
2023-02-17T20:30:29.239Z,100.00
2023-02-17T20:33:01.660Z,100.00
2023-02-17T20:35:35.515Z,100.00
2023-02-17T20:38:09.244Z,100.00
2023-02-17T20:40:41.385Z,100.00
2023-02-17T20:43:13.735Z,99.99
2023-02-17T20:45:46.595Z,99.98
2023-02-17T20:48:19.304Z,99.88
2023-02-17T20:50:51.598Z,99.48
2023-02-17T20:53:23.821Z,99.41
2023-02-17T20:55:56.042Z,98.58
2023-02-17T20:58:28.202Z,98.18
2023-02-17T21:01:00.325Z,98.31
2023-02-17T21:03:35.702Z,97.41
2023-02-17T21:06:20.414Z,97.99
2023-02-17T21:08:55.968Z,96.66
2023-02-17T21:11:28.377Z,96.99
2023-02-17T21:14:00.705Z,97.01
2023-02-17T21:16:34.082Z,95.45
2023-02-17T21:19:06.702Z,95.70
2023-02-17T21:21:39.257Z,95.41
2023-02-17T21:24:12.147Z,95.35
2023-02-17T21:26:44.713Z,95.75
2023-02-17T21:29:17.163Z,95.91
2023-02-17T21:31:49.539Z,96.29
2023-02-17T21:34:21.906Z,96.13
2023-02-17T21:36:54.162Z,96.23
2023-02-17T21:39:26.354Z,96.09
2023-02-17T21:41:58.643Z,96.17
2023-02-17T21:44:48.656Z,95.76
2023-02-17T21:47:21.871Z,95.43
2023-02-17T21:49:56.113Z,95.72
2023-02-17T21:52:28.412Z,95.52
2023-02-17T21:55:01.186Z,93.66
2023-02-17T21:57:33.409Z,93.65
2023-02-17T22:00:08.964Z,92.12
2023-02-17T22:02:44.444Z,91.61
2023-02-17T22:05:17.225Z,91.62
2023-02-17T22:07:52.398Z,88.86
2023-02-17T22:10:24.771Z,90.86
2023-02-17T22:12:57.072Z,91.75
2023-02-17T22:15:29.390Z,89.41
2023-02-17T22:18:02.148Z,90.01
2023-02-17T22:20:35.858Z,89.21
2023-02-17T22:23:08.095Z,90.00
2023-02-17T22:25:44.258Z,89.53
2023-02-17T22:28:16.886Z,89.25
2023-02-17T22:30:54.328Z,89.46
2023-02-17T22:33:26.581Z,89.60
2023-02-17T22:36:04.300Z,88.99
2023-02-17T22:38:37.212Z,88.63
2023-02-17T22:41:12.370Z,88.62
2023-02-17T22:43:46.082Z,87.92
2023-02-17T22:46:20.048Z,88.10
2023-02-17T22:48:53.719Z,87.51
2023-02-17T22:51:28.345Z,87.65
2023-02-17T22:54:01.187Z,87.30
2023-02-17T22:56:33.753Z,88.05
2023-02-17T22:59:06.409Z,87.12
2023-02-17T23:01:39.601Z,87.68
2023-02-17T23:13:20.126Z,86.86
2023-02-17T23:15:53.322Z,85.99
2023-02-17T23:18:25.642Z,85.90
2023-02-17T23:20:57.864Z,84.82
2023-02-17T23:23:30.435Z,84.55
2023-02-17T23:26:03.095Z,84.33
2023-02-17T23:28:35.615Z,84.66
2023-02-17T23:31:12.200Z,85.33
2023-02-17T23:33:46.692Z,84.47
2023-02-17T23:36:19.552Z,83.90
2023-02-17T23:38:52.976Z,83.58
2023-02-17T23:41:25.835Z,84.77
2023-02-17T23:43:58.136Z,83.28
2023-02-17T23:46:30.851Z,83.41
2023-02-17T23:49:03.149Z,82.80
2023-02-17T23:51:35.514Z,83.12
2023-02-17T23:54:07.828Z,82.95
2023-02-17T23:56:40.917Z,83.78
2023-02-17T23:59:13.453Z,84.17
